Time;durP1;ratioP1;P1;durP2;ratioP2;P2;SDS_P1;SDS_P2;PMS_P1;PMS_P2;Temp;Humidity;BMP_temperature;BMP_pressure;BME280_temperature;BME280_humidity;BME280_pressure;Samples;Min_cycle;Max_cycle;Signal;HPM_P1;HPM_P2
2023/06/03 00:01:59;;;;;;;11.90;8.20;;;17.70;99.90;;;;;;5034140;28;20414;-77
2023/06/03 00:04:29;;;;;;;11.90;8.50;;;17.50;99.90;;;;;;5036032;28;20386;-77
2023/06/03 00:06:58;;;;;;;12.85;9.10;;;17.50;99.90;;;;;;5035888;28;20035;-78
2023/06/03 00:09:24;;;;;;;13.73;8.93;;;17.70;99.90;;;;;;5035891;28;20052;-77
2023/06/03 00:11:50;;;;;;;13.63;8.50;;;17.70;99.90;;;;;;5035393;28;20034;-77
2023/06/03 00:14:17;;;;;;;12.18;8.40;;;17.70;99.90;;;;;;5034705;28;20034;-78
2023/06/03 00:16:45;;;;;;;14.52;9.32;;;17.60;99.90;;;;;;5017051;28;20056;-78
2023/06/03 00:19:14;;;;;;;12.52;8.32;;;17.50;99.90;;;;;;5018304;28;20394;-78
2023/06/03 00:21:49;;;;;;;14.55;9.20;;;17.40;99.90;;;;;;5035601;28;20029;-78
2023/06/03 00:24:24;;;;;;;13.65;8.45;;;17.50;99.90;;;;;;5034303;28;20041;-77
2023/06/03 00:26:51;;;;;;;14.85;9.35;;;17.30;99.90;;;;;;5034359;28;20025;-77
2023/06/03 00:29:18;;;;;;;17.33;9.05;;;17.20;99.90;;;;;;5034551;28;20036;-78
2023/06/03 00:31:44;;;;;;;14.15;9.30;;;17.20;99.90;;;;;;5033577;28;20037;-78
2023/06/03 00:34:10;;;;;;;16.50;9.13;;;17.20;99.90;;;;;;5035561;28;20037;-78
2023/06/03 00:36:37;;;;;;;15.77;9.10;;;17.30;99.90;;;;;;5033895;28;20033;-78
2023/06/03 00:39:03;;;;;;;12.98;9.02;;;17.20;99.90;;;;;;5017366;28;20383;-78
2023/06/03 00:41:29;;;;;;;13.27;9.05;;;17.20;99.90;;;;;;5030485;28;20042;-78
2023/06/03 00:43:55;;;;;;;13.55;8.63;;;17.10;99.90;;;;;;5030866;28;20227;-78
2023/06/03 00:46:21;;;;;;;12.10;8.57;;;17.10;99.90;;;;;;5024805;28;20033;-76
2023/06/03 00:48:47;;;;;;;10.95;8.43;;;17.10;99.90;;;;;;5051599;28;20037;-76
2023/06/03 00:51:14;;;;;;;9.90;7.82;;;16.80;99.90;;;;;;5027900;28;20037;-77
2023/06/03 00:53:40;;;;;;;11.15;8.50;;;16.80;99.90;;;;;;5033676;28;20386;-77
2023/06/03 00:56:06;;;;;;;13.82;8.85;;;16.70;99.90;;;;;;5016886;28;20057;-77
2023/06/03 00:58:32;;;;;;;14.48;8.48;;;16.70;99.90;;;;;;5033916;28;20030;-77
2023/06/03 01:00:58;;;;;;;11.55;8.40;;;16.80;99.90;;;;;;5034255;28;20402;-77
2023/06/03 01:03:25;;;;;;;14.73;9.23;;;17.00;99.90;;;;;;5033926;28;20030;-77
2023/06/03 01:05:56;;;;;;;12.00;8.20;;;17.00;99.90;;;;;;5034798;28;20033;-78
2023/06/03 01:08:35;;;;;;;13.02;8.55;;;16.70;99.90;;;;;;5033505;28;20022;-77
2023/06/03 01:11:09;;;;;;;19.30;9.20;;;16.60;99.90;;;;;;5033868;28;20029;-76
2023/06/03 01:13:43;;;;;;;13.90;8.70;;;16.60;99.90;;;;;;5033671;28;20401;-77
2023/06/03 01:16:09;;;;;;;18.50;8.77;;;16.60;99.90;;;;;;5033494;28;20498;-78
2023/06/03 01:18:36;;;;;;;10.30;8.23;;;16.50;99.90;;;;;;5033457;28;20026;-78
2023/06/03 01:21:03;;;;;;;18.05;9.45;;;16.50;99.90;;;;;;5033423;28;20037;-77
2023/06/03 01:23:33;;;;;;;13.88;9.00;;;16.40;99.90;;;;;;5033269;28;20034;-77
2023/06/03 01:26:00;;;;;;;11.40;8.50;;;16.40;99.90;;;;;;5033304;28;20029;-77
2023/06/03 01:28:27;;;;;;;10.32;8.30;;;16.30;99.90;;;;;;5033435;28;20052;-78
2023/06/03 01:30:54;;;;;;;13.30;8.65;;;16.30;99.90;;;;;;5032747;28;20033;-78
2023/06/03 01:33:21;;;;;;;13.38;9.40;;;16.30;99.90;;;;;;5033157;28;20025;-78
2023/06/03 01:35:48;;;;;;;14.77;9.35;;;16.10;99.90;;;;;;5016516;28;20061;-77
2023/06/03 01:38:14;;;;;;;13.27;8.80;;;16.20;99.90;;;;;;5032740;28;20040;-78
2023/06/03 01:40:40;;;;;;;13.77;9.20;;;16.10;99.90;;;;;;5032983;28;20033;-78
2023/06/03 01:43:06;;;;;;;11.85;8.80;;;16.00;99.90;;;;;;5033126;28;20136;-77
2023/06/03 01:45:32;;;;;;;14.07;8.95;;;16.00;99.90;;;;;;5032127;28;20025;-77
2023/06/03 01:47:59;;;;;;;15.68;9.75;;;16.00;99.90;;;;;;5043323;28;20049;-77
2023/06/03 01:50:25;;;;;;;11.27;8.85;;;16.10;99.90;;;;;;5049968;28;20029;-77
2023/06/03 01:52:51;;;;;;;13.18;8.50;;;15.90;99.90;;;;;;5033870;28;20025;-77
2023/06/03 01:55:18;;;;;;;15.07;9.38;;;15.90;99.90;;;;;;5033639;28;20367;-77
2023/06/03 01:57:47;;;;;;;12.45;9.30;;;15.80;99.90;;;;;;5015921;28;20044;-78
2023/06/03 02:00:13;;;;;;;14.70;8.70;;;15.90;99.90;;;;;;5032816;28;20037;-78
2023/06/03 02:02:39;;;;;;;10.75;8.38;;;15.90;99.90;;;;;;5031131;28;20041;-77
2023/06/03 02:05:06;;;;;;;9.98;8.60;;;15.90;99.90;;;;;;5024848;28;20044;-78
2023/06/03 02:07:32;;;;;;;13.02;8.68;;;16.00;99.90;;;;;;5051083;28;20041;-77
2023/06/03 02:09:58;;;;;;;14.77;9.45;;;16.00;99.90;;;;;;5028501;28;20022;-77
2023/06/03 02:12:25;;;;;;;12.40;8.50;;;16.00;99.90;;;;;;5046424;28;20037;-77
2023/06/03 02:14:53;;;;;;;11.10;8.60;;;16.00;99.90;;;;;;5030904;28;20470;-77
2023/06/03 02:17:22;;;;;;;14.77;9.18;;;15.90;99.90;;;;;;5046428;28;20406;-78
2023/06/03 02:19:48;;;;;;;11.07;7.95;;;15.70;99.90;;;;;;5063948;28;20463;-77
2023/06/03 02:22:15;;;;;;;13.77;7.25;;;15.60;99.90;;;;;;5047295;28;20033;-77
2023/06/03 02:24:41;;;;;;;16.88;8.27;;;15.50;99.90;;;;;;5046489;28;20357;-77
2023/06/03 02:27:08;;;;;;;12.85;7.72;;;15.40;99.90;;;;;;5030635;28;20029;-77
2023/06/03 02:29:35;;;;;;;13.48;8.00;;;15.50;99.90;;;;;;5031048;28;20036;-77
2023/06/03 02:32:01;;;;;;;12.73;7.78;;;15.40;99.90;;;;;;5029913;28;20064;-78
2023/06/03 02:34:27;;;;;;;11.82;7.85;;;15.40;99.90;;;;;;5030839;28;20044;-77
2023/06/03 02:36:53;;;;;;;14.77;8.07;;;15.40;99.90;;;;;;5001744;28;20065;-77
2023/06/03 02:39:20;;;;;;;13.75;8.65;;;15.40;99.90;;;;;;5032060;28;20049;-77
2023/06/03 02:41:49;;;;;;;13.85;8.00;;;15.20;99.90;;;;;;5031687;28;20041;-77
2023/06/03 02:44:15;;;;;;;12.23;7.50;;;15.30;99.90;;;;;;5031917;28;20363;-77
2023/06/03 02:46:42;;;;;;;14.00;8.40;;;15.40;99.90;;;;;;5014578;28;20058;-77
2023/06/03 02:49:08;;;;;;;14.68;8.20;;;15.50;99.90;;;;;;5051830;28;20025;-78
2023/06/03 02:51:36;;;;;;;15.60;7.93;;;15.60;99.90;;;;;;5039196;28;20033;-78
2023/06/03 02:54:02;;;;;;;14.73;7.53;;;15.50;99.90;;;;;;5031826;28;20373;-78
2023/06/03 02:56:28;;;;;;;13.80;8.25;;;15.50;99.90;;;;;;5031520;28;20045;-78
2023/06/03 02:58:55;;;;;;;12.93;7.50;;;15.50;99.90;;;;;;5031789;28;20026;-77
2023/06/03 03:01:21;;;;;;;11.63;7.50;;;15.50;99.90;;;;;;5031985;28;20044;-77
2023/06/03 03:03:47;;;;;;;13.23;7.85;;;15.50;99.90;;;;;;5014665;28;20060;-77
2023/06/03 03:06:19;;;;;;;12.32;7.35;;;15.40;99.90;;;;;;5031381;28;20048;-78
2023/06/03 03:08:48;;;;;;;12.00;7.18;;;15.30;99.90;;;;;;5031607;28;20032;-77
2023/06/03 03:11:14;;;;;;;15.35;7.80;;;15.20;99.90;;;;;;5031208;28;20048;-77
2023/06/03 03:13:41;;;;;;;19.27;7.85;;;15.10;99.90;;;;;;5014872;28;20045;-77
2023/06/03 03:16:08;;;;;;;14.00;7.40;;;15.10;99.90;;;;;;5031908;28;20056;-77
2023/06/03 03:18:35;;;;;;;14.60;7.90;;;15.10;99.90;;;;;;5032097;28;20036;-77
2023/06/03 03:21:01;;;;;;;14.13;7.47;;;15.20;99.90;;;;;;5031252;28;20386;-76
2023/06/03 03:23:27;;;;;;;14.35;7.38;;;15.20;99.90;;;;;;5014752;28;20045;-77
2023/06/03 03:25:56;;;;;;;15.30;7.40;;;15.00;99.90;;;;;;5030863;28;20029;-77
2023/06/03 03:28:22;;;;;;;11.88;7.65;;;14.80;99.90;;;;;;5031643;28;20501;-77
2023/06/03 03:30:49;;;;;;;11.27;7.43;;;14.80;99.90;;;;;;5031777;28;20041;-77
2023/06/03 03:33:16;;;;;;;18.17;7.45;;;14.80;99.90;;;;;;5030721;28;20032;-78
2023/06/03 03:35:43;;;;;;;19.02;7.95;;;14.80;99.90;;;;;;4997160;28;20045;-76
2023/06/03 03:38:09;;;;;;;14.43;6.80;;;14.80;99.90;;;;;;5047675;28;20048;-78
2023/06/03 03:40:36;;;;;;;15.45;7.30;;;14.70;99.90;;;;;;5047121;28;20037;-78
2023/06/03 03:43:05;;;;;;;15.40;7.40;;;14.60;99.90;;;;;;5047034;28;20040;-78
2023/06/03 03:45:37;;;;;;;16.92;7.72;;;14.60;99.90;;;;;;5030081;28;20040;-78
2023/06/03 03:48:04;;;;;;;13.52;7.53;;;14.70;99.90;;;;;;5041792;28;20044;-78
2023/06/03 03:50:50;;;;;;;16.10;7.68;;;14.50;99.90;;;;;;5050976;28;20497;-78
2023/06/03 03:53:23;;;;;;;13.57;7.35;;;14.60;99.90;;;;;;5051947;28;20385;-78
2023/06/03 03:55:50;;;;;;;14.63;7.95;;;14.60;99.90;;;;;;5048854;28;20033;-78
2023/06/03 03:58:41;;;;;;;14.98;8.35;;;14.50;99.90;;;;;;5030855;28;20033;-77
2023/06/03 04:01:09;;;;;;;16.75;7.75;;;14.60;99.90;;;;;;5031191;28;20048;-77
2023/06/03 04:03:40;;;;;;;13.70;7.30;;;14.60;99.90;;;;;;5031756;28;20075;-77
2023/06/03 04:06:10;;;;;;;14.10;8.07;;;14.60;99.90;;;;;;5030685;28;20390;-77
2023/06/03 04:08:46;;;;;;;11.82;7.65;;;14.50;99.90;;;;;;5031971;28;20030;-77
2023/06/03 04:11:37;;;;;;;18.50;8.07;;;14.50;99.90;;;;;;5015069;28;20041;-77
2023/06/03 04:14:04;;;;;;;11.87;7.70;;;14.60;99.90;;;;;;5030758;28;20022;-77
2023/06/03 04:16:48;;;;;;;14.65;7.20;;;14.40;99.90;;;;;;5029651;28;20532;-77
2023/06/03 04:19:16;;;;;;;14.25;7.43;;;14.30;99.90;;;;;;5030241;28;20040;-77
2023/06/03 04:21:42;;;;;;;13.52;7.57;;;14.20;99.90;;;;;;5013834;28;20037;-76
2023/06/03 04:24:08;;;;;;;17.73;7.72;;;14.10;99.90;;;;;;5014207;28;20044;-77
2023/06/03 04:26:34;;;;;;;16.65;7.82;;;14.10;99.90;;;;;;5030223;28;20029;-78
2023/06/03 04:29:01;;;;;;;18.20;7.20;;;14.00;99.90;;;;;;5014196;28;20065;-80
2023/06/03 04:31:27;;;;;;;14.73;7.72;;;13.90;99.90;;;;;;5029517;28;20410;-80
2023/06/03 04:33:53;;;;;;;18.98;7.47;;;14.00;99.90;;;;;;5030437;28;20032;-79
2023/06/03 04:36:19;;;;;;;14.85;7.18;;;14.00;99.90;;;;;;5013744;28;20033;-78
2023/06/03 04:38:45;;;;;;;18.67;7.07;;;14.00;99.90;;;;;;5031620;28;20018;-79
2023/06/03 04:41:12;;;;;;;15.52;7.40;;;13.90;99.90;;;;;;5030280;28;20038;-79
2023/06/03 04:43:40;;;;;;;16.88;7.57;;;13.90;99.90;;;;;;5031624;28;20026;-79
2023/06/03 04:46:09;;;;;;;14.00;7.53;;;13.90;99.90;;;;;;5029446;28;20509;-79
2023/06/03 04:48:45;;;;;;;20.33;7.97;;;13.90;99.90;;;;;;5048124;28;20056;-78
2023/06/03 04:51:11;;;;;;;13.35;7.07;;;13.80;99.90;;;;;;5045402;28;20036;-79
2023/06/03 04:53:37;;;;;;;16.13;7.68;;;13.90;99.90;;;;;;5035279;28;20025;-79
2023/06/03 04:56:05;;;;;;;18.38;7.55;;;13.70;99.90;;;;;;5033668;28;20053;-79
2023/06/03 04:58:31;;;;;;;10.38;6.68;;;13.70;99.90;;;;;;5034035;28;20028;-79
2023/06/03 05:00:58;;;;;;;16.05;8.40;;;13.70;99.90;;;;;;5032789;28;20645;-79
2023/06/03 05:03:25;;;;;;;16.90;7.75;;;13.70;99.90;;;;;;5033639;28;20021;-78
2023/06/03 05:05:52;;;;;;;16.58;7.47;;;13.80;99.90;;;;;;5033530;28;20390;-79
2023/06/03 05:08:18;;;;;;;15.52;7.88;;;13.90;99.90;;;;;;5033401;28;20501;-79
2023/06/03 05:10:45;;;;;;;13.40;6.97;;;13.90;99.90;;;;;;5033357;28;20034;-79
2023/06/03 05:13:11;;;;;;;19.42;7.32;;;14.10;99.90;;;;;;5034867;28;20025;-79
2023/06/03 05:15:37;;;;;;;20.55;7.82;;;14.10;99.90;;;;;;5033755;28;20550;-79
2023/06/03 05:18:03;;;;;;;14.30;7.22;;;14.20;99.90;;;;;;5033655;28;20029;-79
2023/06/03 05:20:30;;;;;;;14.38;7.35;;;14.40;99.90;;;;;;5033282;28;20056;-78
2023/06/03 05:22:56;;;;;;;11.15;6.45;;;14.50;99.90;;;;;;5033684;28;20032;-79
2023/06/03 05:25:22;;;;;;;18.00;7.60;;;14.60;99.90;;;;;;5033148;28;20033;-78
2023/06/03 05:27:49;;;;;;;17.98;7.68;;;14.70;99.90;;;;;;5033341;28;20033;-79
2023/06/03 05:30:15;;;;;;;13.40;6.55;;;14.60;99.90;;;;;;5032374;28;20044;-79
2023/06/03 05:32:41;;;;;;;14.43;7.78;;;14.70;99.90;;;;;;5033268;28;20064;-78
2023/06/03 05:35:09;;;;;;;11.45;5.20;;;14.60;99.90;;;;;;5016906;28;20033;-79
2023/06/03 05:37:35;;;;;;;14.10;7.32;;;14.60;99.90;;;;;;5016934;28;20042;-78
2023/06/03 05:40:02;;;;;;;17.15;7.65;;;14.50;99.90;;;;;;5049656;28;20379;-79
2023/06/03 05:42:28;;;;;;;13.20;7.18;;;14.60;99.90;;;;;;5032580;28;20045;-78
2023/06/03 05:44:54;;;;;;;17.77;6.88;;;14.70;99.90;;;;;;5032335;28;20033;-79
2023/06/03 05:47:21;;;;;;;18.42;7.85;;;14.70;99.90;;;;;;5054013;28;20044;-79
2023/06/03 05:49:47;;;;;;;17.20;8.10;;;14.80;99.90;;;;;;5054148;28;20393;-79
2023/06/03 05:52:13;;;;;;;16.83;7.07;;;15.10;99.90;;;;;;5035684;28;20032;-78
2023/06/03 05:54:39;;;;;;;21.33;8.85;;;15.10;99.90;;;;;;5032817;28;20028;-78
2023/06/03 05:57:05;;;;;;;10.98;7.85;;;15.00;99.90;;;;;;5033782;28;20398;-79
2023/06/03 05:59:31;;;;;;;8.50;5.95;;;15.10;99.90;;;;;;5033425;28;20479;-78
2023/06/03 06:01:57;;;;;;;17.08;7.60;;;15.20;99.90;;;;;;5032044;28;20112;-79
2023/06/03 06:04:23;;;;;;;13.65;6.85;;;15.30;99.90;;;;;;5015691;28;20041;-77
2023/06/03 06:06:49;;;;;;;15.38;8.45;;;15.40;99.90;;;;;;5032367;28;20398;-78
2023/06/03 06:09:15;;;;;;;17.40;8.43;;;15.50;99.90;;;;;;5015937;28;20044;-79
2023/06/03 06:11:42;;;;;;;18.65;8.32;;;15.80;99.90;;;;;;5032425;28;20038;-77
2023/06/03 06:14:08;;;;;;;15.40;7.45;;;15.90;99.90;;;;;;5033326;28;20025;-79
2023/06/03 06:16:34;;;;;;;16.63;7.72;;;15.80;99.90;;;;;;5014585;28;20076;-78
2023/06/03 06:19:00;;;;;;;16.73;8.52;;;15.50;99.90;;;;;;5032383;28;20030;-79
2023/06/03 06:21:26;;;;;;;11.30;7.53;;;15.60;99.90;;;;;;5032144;28;20047;-79
2023/06/03 06:23:52;;;;;;;14.98;8.15;;;15.70;99.90;;;;;;5032355;28;20063;-78
2023/06/03 06:26:18;;;;;;;19.60;8.90;;;15.90;99.90;;;;;;5032035;28;20037;-78
2023/06/03 06:28:45;;;;;;;13.77;8.45;;;16.00;99.90;;;;;;5031957;28;20040;-76
2023/06/03 06:31:12;;;;;;;18.40;8.68;;;16.20;99.90;;;;;;5031438;28;20037;-79
2023/06/03 06:33:38;;;;;;;22.17;8.68;;;16.30;99.90;;;;;;5015608;28;20037;-79
2023/06/03 06:36:32;;;;;;;17.83;8.73;;;16.50;99.90;;;;;;4999242;28;20414;-79
2023/06/03 06:38:58;;;;;;;16.60;8.35;;;16.70;99.90;;;;;;5032299;28;20032;-79
2023/06/03 06:41:25;;;;;;;20.20;8.73;;;17.00;99.90;;;;;;5031506;28;20040;-79
2023/06/03 06:43:53;;;;;;;19.85;8.38;;;17.10;99.90;;;;;;5033237;28;20033;-79
2023/06/03 06:46:19;;;;;;;27.42;8.88;;;17.00;99.90;;;;;;5031244;28;20044;-79
2023/06/03 06:48:45;;;;;;;17.60;8.77;;;17.20;99.90;;;;;;5048712;28;20055;-79
2023/06/03 06:51:11;;;;;;;18.30;8.05;;;17.30;99.90;;;;;;5042976;28;20371;-79
2023/06/03 06:53:37;;;;;;;24.55;8.93;;;17.40;99.90;;;;;;5031849;28;20033;-79
2023/06/03 06:56:05;;;;;;;21.67;8.77;;;17.40;99.90;;;;;;5032227;28;20478;-79
2023/06/03 06:58:36;;;;;;;18.23;8.55;;;17.50;99.90;;;;;;5031956;28;20021;-79
2023/06/03 07:01:05;;;;;;;17.13;8.30;;;17.50;99.90;;;;;;5030862;28;20502;-79
2023/06/03 07:03:31;;;;;;;13.95;8.43;;;17.50;99.90;;;;;;5031632;28;20033;-78
2023/06/03 07:05:58;;;;;;;15.07;8.07;;;17.50;99.90;;;;;;5031481;28;20057;-79
2023/06/03 07:08:24;;;;;;;24.38;9.50;;;17.50;99.90;;;;;;5014861;28;20037;-78
2023/06/03 07:10:50;;;;;;;17.13;8.85;;;17.70;99.90;;;;;;5030387;28;20453;-79
2023/06/03 07:13:16;;;;;;;14.90;7.20;;;17.70;99.90;;;;;;5031460;28;20056;-79
2023/06/03 07:15:43;;;;;;;19.70;8.80;;;17.90;99.90;;;;;;5030626;28;20030;-78
2023/06/03 07:18:10;;;;;;;15.40;8.90;;;17.90;99.90;;;;;;5031439;28;20025;-79
2023/06/03 07:20:41;;;;;;;19.42;9.50;;;17.90;99.90;;;;;;5031103;28;20406;-79
2023/06/03 07:23:11;;;;;;;19.20;8.23;;;18.00;99.90;;;;;;5015147;28;20501;-78
2023/06/03 07:25:42;;;;;;;20.35;9.18;;;18.10;99.90;;;;;;5030512;28;20048;-79
2023/06/03 07:28:09;;;;;;;17.77;9.38;;;18.30;99.90;;;;;;5031292;28;20045;-79
2023/06/03 07:30:36;;;;;;;19.85;9.38;;;18.50;99.90;;;;;;5030637;28;20037;-78
2023/06/03 07:33:04;;;;;;;14.90;9.20;;;18.60;99.90;;;;;;5031150;28;20025;-78
2023/06/03 07:35:30;;;;;;;18.48;8.95;;;18.70;99.90;;;;;;5030886;28;21510;-79
2023/06/03 07:37:56;;;;;;;18.23;8.48;;;18.90;99.90;;;;;;5047460;28;20041;-79
2023/06/03 07:40:30;;;;;;;15.80;9.02;;;19.00;99.90;;;;;;5031792;28;20462;-79
2023/06/03 07:42:56;;;;;;;16.70;9.30;;;19.20;99.90;;;;;;5031800;28;20029;-79
2023/06/03 07:45:22;;;;;;;20.92;9.32;;;19.20;99.90;;;;;;5030105;28;20086;-79
2023/06/03 07:47:48;;;;;;;18.95;9.50;;;19.20;99.90;;;;;;5039948;28;20056;-78
2023/06/03 07:50:23;;;;;;;18.90;9.65;;;19.30;99.90;;;;;;5050124;28;20060;-79
2023/06/03 07:53:10;;;;;;;17.60;8.73;;;19.30;99.90;;;;;;5031558;28;20025;-79
2023/06/03 07:55:46;;;;;;;12.85;9.10;;;19.40;99.90;;;;;;5029970;28;20045;-79
2023/06/03 07:58:12;;;;;;;20.38;9.30;;;19.60;99.90;;;;;;5031049;28;20041;-79
2023/06/03 08:00:52;;;;;;;15.60;8.68;;;19.50;99.90;;;;;;5029985;28;20038;-78
2023/06/03 08:03:18;;;;;;;19.88;9.50;;;19.60;99.90;;;;;;5014400;28;20041;-79
2023/06/03 08:05:48;;;;;;;18.60;8.98;;;19.70;99.90;;;;;;5030597;28;20025;-78
2023/06/03 08:08:16;;;;;;;19.65;8.95;;;19.80;99.90;;;;;;5030541;28;20022;-78
2023/06/03 08:10:44;;;;;;;18.02;10.00;;;19.90;99.90;;;;;;5030557;28;20482;-79
2023/06/03 08:13:11;;;;;;;15.77;9.32;;;20.00;99.90;;;;;;5014774;28;20037;-79
2023/06/03 08:15:37;;;;;;;18.58;9.23;;;20.10;99.90;;;;;;5013461;28;20037;-79
2023/06/03 08:18:05;;;;;;;14.15;9.48;;;20.20;99.90;;;;;;5030614;28;20033;-79
2023/06/03 08:20:31;;;;;;;16.50;9.05;;;20.10;99.90;;;;;;5030502;28;20040;-79
2023/06/03 08:22:58;;;;;;;17.20;9.80;;;20.10;99.90;;;;;;5031616;28;20040;-78
2023/06/03 08:25:24;;;;;;;14.80;8.75;;;20.20;99.90;;;;;;5017552;28;20037;-79
2023/06/03 08:27:50;;;;;;;15.85;9.02;;;20.30;99.90;;;;;;5035357;28;20144;-79
2023/06/03 08:30:16;;;;;;;15.68;8.60;;;20.30;99.90;;;;;;5034886;28;20044;-78
2023/06/03 08:32:43;;;;;;;14.52;8.10;;;20.30;99.90;;;;;;5035512;28;20081;-78
2023/06/03 08:35:09;;;;;;;16.02;9.07;;;20.40;99.90;;;;;;5035635;28;20032;-78
2023/06/03 08:37:36;;;;;;;14.68;8.73;;;20.40;99.90;;;;;;5013735;28;20040;-78
2023/06/03 08:40:07;;;;;;;15.10;9.07;;;20.30;99.90;;;;;;5035585;28;20032;-79
2023/06/03 08:42:41;;;;;;;16.48;9.82;;;20.50;99.90;;;;;;5050914;28;20041;-79
2023/06/03 08:45:09;;;;;;;18.00;9.13;;;20.60;99.90;;;;;;5049438;28;20025;-77
2023/06/03 08:47:54;;;;;;;16.23;9.82;;;20.90;99.90;;;;;;5041914;28;20060;-78
2023/06/03 08:50:20;;;;;;;14.82;9.05;;;20.90;99.70;;;;;;5034040;28;20029;-78
2023/06/03 08:52:47;;;;;;;16.65;8.57;;;21.00;99.70;;;;;;5033938;28;20033;-78
2023/06/03 08:55:16;;;;;;;18.08;8.95;;;21.10;99.80;;;;;;5033708;28;20021;-79
2023/06/03 08:57:56;;;;;;;15.18;8.98;;;21.20;99.90;;;;;;5034142;28;20037;-77
2023/06/03 09:00:24;;;;;;;17.40;9.82;;;21.10;99.60;;;;;;5033250;28;20029;-76
2023/06/03 09:02:51;;;;;;;18.02;10.23;;;21.20;99.20;;;;;;5033873;28;20036;-78
2023/06/03 09:05:18;;;;;;;17.23;9.65;;;21.30;99.50;;;;;;5033511;28;20370;-78
2023/06/03 09:07:47;;;;;;;17.77;9.43;;;21.20;99.10;;;;;;5033781;28;20036;-77
2023/06/03 09:10:17;;;;;;;18.05;9.50;;;21.30;99.30;;;;;;5033473;28;20055;-79
2023/06/03 09:12:44;;;;;;;16.38;8.95;;;21.60;99.20;;;;;;5033874;28;20039;-79
2023/06/03 09:15:14;;;;;;;13.18;9.05;;;21.80;98.70;;;;;;5032987;28;20029;-79
2023/06/03 09:17:43;;;;;;;13.20;9.30;;;21.90;98.10;;;;;;5034739;28;20033;-78
2023/06/03 09:20:10;;;;;;;16.20;10.27;;;21.90;98.50;;;;;;5017083;28;20060;-79
2023/06/03 09:22:36;;;;;;;18.70;10.13;;;21.90;98.40;;;;;;4980880;28;20049;-78
2023/06/03 09:25:03;;;;;;;15.20;10.55;;;22.00;98.30;;;;;;5013713;28;20049;-77
2023/06/03 09:27:29;;;;;;;17.35;10.35;;;22.00;98.50;;;;;;5031430;28;20478;-78
2023/06/03 09:29:56;;;;;;;18.00;10.30;;;22.20;98.20;;;;;;5033427;28;20037;-78
2023/06/03 09:32:23;;;;;;;16.98;10.23;;;22.30;97.80;;;;;;5013626;28;20033;-77
2023/06/03 09:34:50;;;;;;;18.45;11.48;;;22.30;97.50;;;;;;5049544;28;20056;-79
2023/06/03 09:37:16;;;;;;;16.67;11.68;;;22.30;97.50;;;;;;5032395;28;20037;-79
2023/06/03 09:39:43;;;;;;;14.98;10.43;;;22.50;96.60;;;;;;5000020;28;20037;-78
2023/06/03 09:42:10;;;;;;;15.15;10.25;;;22.60;97.30;;;;;;5033988;28;20040;-78
2023/06/03 09:44:45;;;;;;;20.27;11.27;;;22.40;97.20;;;;;;5034172;28;20052;-78
2023/06/03 09:47:12;;;;;;;13.88;10.32;;;22.40;97.40;;;;;;5036387;28;20052;-78
2023/06/03 09:49:38;;;;;;;15.02;10.32;;;22.50;96.50;;;;;;5052902;28;20032;-78
2023/06/03 09:52:07;;;;;;;16.92;10.27;;;22.40;96.80;;;;;;5019938;28;20494;-77
2023/06/03 09:54:34;;;;;;;18.40;10.80;;;22.40;96.80;;;;;;5032974;28;20383;-78
2023/06/03 09:57:11;;;;;;;16.60;9.48;;;22.50;96.70;;;;;;5032287;28;20038;-77
2023/06/03 09:59:40;;;;;;;19.20;11.68;;;22.50;97.00;;;;;;5033005;28;20022;-78
2023/06/03 10:02:12;;;;;;;14.98;11.10;;;22.40;96.80;;;;;;5015371;28;20042;-77
2023/06/03 10:04:40;;;;;;;12.65;9.63;;;22.50;96.60;;;;;;5016300;28;20033;-77
2023/06/03 10:07:10;;;;;;;15.00;11.15;;;22.70;96.90;;;;;;5033622;28;20032;-77
2023/06/03 10:09:37;;;;;;;14.73;10.57;;;23.00;96.30;;;;;;5032634;28;20021;-78
2023/06/03 10:12:04;;;;;;;20.50;11.80;;;23.00;96.00;;;;;;5032231;28;20044;-75
2023/06/03 10:14:30;;;;;;;13.65;10.90;;;23.10;95.90;;;;;;5016276;28;20018;-77
2023/06/03 10:17:06;;;;;;;14.82;10.75;;;23.20;95.70;;;;;;5015405;28;20045;-78
2023/06/03 10:19:37;;;;;;;13.25;10.20;;;23.00;95.50;;;;;;5032320;28;20029;-78
2023/06/03 10:22:03;;;;;;;16.67;10.25;;;23.30;95.60;;;;;;5015825;28;20029;-77
2023/06/03 10:24:31;;;;;;;15.00;11.05;;;23.60;95.60;;;;;;5033486;28;20056;-77
2023/06/03 10:26:57;;;;;;;15.00;10.55;;;23.60;94.80;;;;;;5015970;28;20025;-77
2023/06/03 10:29:25;;;;;;;16.58;11.40;;;23.50;94.90;;;;;;5015920;28;20022;-77
2023/06/03 10:31:55;;;;;;;12.13;10.30;;;23.60;94.30;;;;;;5031417;28;20064;-77
2023/06/03 10:34:21;;;;;;;14.37;10.57;;;23.60;94.20;;;;;;5032050;28;20028;-77
2023/06/03 10:36:56;;;;;;;13.25;11.00;;;23.50;93.60;;;;;;5031661;28;20044;-76
2023/06/03 10:39:23;;;;;;;14.63;10.23;;;23.60;93.90;;;;;;5032171;28;20038;-77
2023/06/03 10:41:50;;;;;;;12.85;10.75;;;23.60;94.20;;;;;;5025563;28;20360;-77
2023/06/03 10:44:19;;;;;;;14.95;9.80;;;23.50;93.80;;;;;;5031976;28;20032;-77
2023/06/03 10:46:49;;;;;;;13.18;11.18;;;23.60;93.80;;;;;;5031843;28;20053;-77
2023/06/03 10:49:15;;;;;;;13.75;10.98;;;23.80;93.50;;;;;;5067792;28;20037;-78
2023/06/03 10:52:10;;;;;;;17.20;11.55;;;24.00;93.70;;;;;;5038894;28;20046;-77
2023/06/03 10:54:58;;;;;;;13.73;12.25;;;24.00;93.30;;;;;;5031819;28;20045;-77
2023/06/03 10:57:34;;;;;;;12.63;11.40;;;24.10;92.80;;;;;;5031041;28;20498;-76
2023/06/03 11:00:00;;;;;;;15.50;11.55;;;24.10;93.10;;;;;;5015432;28;20033;-77
2023/06/03 11:02:26;;;;;;;13.13;10.73;;;24.20;93.20;;;;;;5014125;28;20397;-76
2023/06/03 11:05:24;;;;;;;13.85;12.50;;;24.10;93.00;;;;;;5032866;28;20037;-77
2023/06/03 11:07:51;;;;;;;16.30;12.25;;;24.20;93.00;;;;;;5031720;28;20390;-76
2023/06/03 11:10:41;;;;;;;13.52;11.75;;;24.40;93.00;;;;;;5031289;28;20478;-77
2023/06/03 11:13:08;;;;;;;13.00;11.68;;;24.60;92.60;;;;;;5031578;28;20406;-76
2023/06/03 11:15:58;;;;;;;17.55;11.95;;;24.60;92.60;;;;;;5014411;28;20060;-77
2023/06/03 11:18:24;;;;;;;15.05;11.95;;;24.80;92.50;;;;;;5032298;28;20049;-74
2023/06/03 11:20:50;;;;;;;15.63;12.02;;;24.80;92.60;;;;;;5031150;28;20037;-77
2023/06/03 11:23:38;;;;;;;12.80;11.52;;;24.70;92.70;;;;;;5014846;28;20033;-77
2023/06/03 11:26:33;;;;;;;13.73;11.85;;;24.90;92.40;;;;;;5031064;28;20033;-76
2023/06/03 11:29:00;;;;;;;13.68;12.27;;;24.70;92.50;;;;;;5032498;28;20497;-77
2023/06/03 11:31:27;;;;;;;14.52;12.90;;;24.70;92.60;;;;;;5013921;28;20109;-77
2023/06/03 11:34:22;;;;;;;14.68;12.60;;;24.80;92.20;;;;;;5014533;28;20037;-77
2023/06/03 11:36:52;;;;;;;14.88;12.93;;;24.80;92.60;;;;;;5030754;28;20033;-77
2023/06/03 11:39:19;;;;;;;13.13;11.93;;;24.90;92.60;;;;;;5032271;28;20026;-77
2023/06/03 11:42:08;;;;;;;14.27;11.48;;;25.10;92.50;;;;;;5030766;28;20280;-77
2023/06/03 11:44:35;;;;;;;12.90;11.55;;;25.30;92.70;;;;;;5014729;28;20398;-77
2023/06/03 11:47:02;;;;;;;19.77;12.45;;;25.20;92.50;;;;;;5016174;28;20049;-77
2023/06/03 11:49:28;;;;;;;13.60;12.40;;;25.30;92.70;;;;;;5050959;28;20025;-77
2023/06/03 11:51:58;;;;;;;13.80;12.23;;;25.50;92.30;;;;;;5036228;28;20068;-77
2023/06/03 11:54:24;;;;;;;17.42;12.27;;;25.30;92.00;;;;;;5014440;28;20033;-77
2023/06/03 11:56:51;;;;;;;14.88;13.38;;;25.20;92.10;;;;;;5031179;28;20038;-77
2023/06/03 11:59:35;;;;;;;16.58;12.45;;;25.40;92.00;;;;;;5018690;28;20037;-77
2023/06/03 12:02:03;;;;;;;15.43;13.15;;;25.50;91.90;;;;;;5033897;28;20049;-77
2023/06/03 12:04:29;;;;;;;14.48;11.68;;;25.50;91.80;;;;;;5018624;28;20028;-77
2023/06/03 12:06:55;;;;;;;14.23;12.02;;;25.60;90.80;;;;;;5018102;28;20045;-77
2023/06/03 12:09:26;;;;;;;14.65;12.40;;;25.50;90.80;;;;;;5018515;28;20029;-77
2023/06/03 12:11:55;;;;;;;13.10;11.65;;;25.50;90.70;;;;;;5035908;28;20030;-77
2023/06/03 12:14:26;;;;;;;13.70;12.30;;;25.60;90.80;;;;;;5018870;28;20030;-77
2023/06/03 12:16:52;;;;;;;13.18;11.85;;;25.70;90.80;;;;;;5017052;28;20033;-77
2023/06/03 12:19:19;;;;;;;14.07;11.77;;;25.80;90.90;;;;;;5034821;28;20029;-78
2023/06/03 12:21:53;;;;;;;12.68;11.38;;;25.90;90.80;;;;;;5034427;28;20390;-77
2023/06/03 12:24:19;;;;;;;16.13;12.55;;;25.90;90.60;;;;;;5019090;28;20037;-77
2023/06/03 12:26:45;;;;;;;12.98;11.60;;;26.00;90.80;;;;;;5034379;28;20038;-77
2023/06/03 12:29:12;;;;;;;14.48;12.05;;;26.30;90.60;;;;;;5035779;28;20018;-77
2023/06/03 12:31:38;;;;;;;15.80;11.98;;;26.40;89.50;;;;;;5017526;28;20474;-77
2023/06/03 12:34:05;;;;;;;15.55;11.77;;;26.20;90.20;;;;;;5034360;28;20037;-77
2023/06/03 12:36:47;;;;;;;14.63;11.55;;;26.30;89.90;;;;;;5034002;28;20045;-77
2023/06/03 12:39:13;;;;;;;14.60;11.80;;;26.30;88.70;;;;;;5017335;28;20053;-77
2023/06/03 12:41:50;;;;;;;13.27;11.85;;;26.30;89.40;;;;;;5035349;28;20029;-77